Pagina principale
METAR-TAF:

METAR-TAF

Aeroporti :

Szolnok, Ungheria

latitudine: 47-07N, longitudine: 020-14E, altezza: 89 m

Osservazione

Il bollettino è stato emesso 36 minuti fa, alle 09:15 UTC
Vento 4 kt da est/nord-est
Temperature 18°C
Umidità 39%
Pressione 1023 hPa
Visibilità 10 km o più
nessuna nube inferiore a 1500 m e nessun cumulonembo

METAR: LHSN 170915Z 06004KT CAVOK 18/04 Q1023 NOSIG RMK BLU

Ora: 11:51 (09:51 UTC)

Previsione

Il bollettino è stato emesso 1 ora e 36 minuti fa, alle 08:15 UTC
Previsione valida dal 17 alle 09 UTC al 17 alle 18 UTC
Vento 5 kt da est
Visibilità 10 km o più
nessuna nube inferiore a 1500 m e nessun cumulonembo
Evoluzione graduale
dal 17 alle 14 UTC al 17 alle 16 UTC
Vento 5 kt da nord/nord-est

TAF: LHSN 170815Z 1709/1718 08005KT CAVOK BECMG 1714/1716 03005KT

Osservazioni e previsioni meteorologiche di più di 4000 aeroporti (messaggi METAR e TAF).

Le stazioni disponibili sono rappresentate dai dischi gialli e rossi sulla carta.

Puntare il mouse per vedere il nome della stazione.

Clicca sopra per visualizzare le osservazioni e previsioni meteorologiche.

Per cambiare la mappa : fare clic sui pulsanti verdi con una croce nera per ingrandire, il pulsante verde con un trattino per diminuire, o sulla freccia verde per le mappe adiacenti.


METAR-TAF: